createdAt,value
2022-11-28T00:02:35.000Z,15.72
2022-11-28T00:07:35.000Z,15.59
2022-11-28T00:12:35.000Z,14.43
2022-11-28T00:17:34.000Z,13.86
2022-11-28T00:22:34.000Z,13.43
2022-11-28T00:27:35.000Z,13.34
2022-11-28T00:32:34.000Z,13.37
2022-11-28T00:37:35.000Z,13.48
2022-11-28T00:42:34.000Z,13.23
2022-11-28T00:47:35.000Z,13.35
2022-11-28T00:52:35.000Z,13.1
2022-11-28T00:57:35.000Z,13.93
2022-11-28T01:02:35.000Z,13.16
2022-11-28T01:07:34.000Z,13.16
2022-11-28T01:12:35.000Z,13
2022-11-28T01:17:35.000Z,12.86
2022-11-28T01:22:34.000Z,12.67
2022-11-28T01:32:34.000Z,13.21
2022-11-28T01:37:34.000Z,14.21
2022-11-28T01:42:35.000Z,13.97
2022-11-28T01:47:35.000Z,12.86
2022-11-28T01:52:34.000Z,11.72
2022-11-28T01:57:35.000Z,9.55
2022-11-28T02:02:34.000Z,9.52
2022-11-28T02:07:35.000Z,10.61
2022-11-28T02:12:34.000Z,9.76
2022-11-28T02:17:34.000Z,9.26
2022-11-28T02:22:34.000Z,9.88
2022-11-28T02:27:35.000Z,10.16
2022-11-28T02:32:35.000Z,10.16
2022-11-28T02:37:34.000Z,10.66
2022-11-28T02:42:34.000Z,10.16
2022-11-28T02:47:35.000Z,10
2022-11-28T02:52:35.000Z,9.91
2022-11-28T02:57:35.000Z,10.68
2022-11-28T03:02:34.000Z,10.19
2022-11-28T03:07:35.000Z,11.35
2022-11-28T03:12:35.000Z,10.88
2022-11-28T03:17:35.000Z,11.45
2022-11-28T03:22:35.000Z,10.71
2022-11-28T03:27:35.000Z,11.96
2022-11-28T03:32:34.000Z,11.09
2022-11-28T03:37:35.000Z,11.86
2022-11-28T03:42:34.000Z,11.92
2022-11-28T03:47:34.000Z,11.92
2022-11-28T03:52:34.000Z,12.32
2022-11-28T03:57:35.000Z,11.17
2022-11-28T04:02:34.000Z,11.16
2022-11-28T04:07:34.000Z,10.84
2022-11-28T04:12:34.000Z,11.27
2022-11-28T04:17:34.000Z,11.69
2022-11-28T04:22:34.000Z,11.56
2022-11-28T04:27:35.000Z,11.95
2022-11-28T04:32:34.000Z,11.32
2022-11-28T04:37:35.000Z,12.09
2022-11-28T04:42:34.000Z,11.82
2022-11-28T04:52:34.000Z,11.17
2022-11-28T04:57:35.000Z,11.42
2022-11-28T05:02:35.000Z,12.91
2022-11-28T05:07:35.000Z,12.48
2022-11-28T05:12:35.000Z,12.57
2022-11-28T05:17:35.000Z,12.67
2022-11-28T05:22:35.000Z,12.67
2022-11-28T05:27:34.000Z,12.5
2022-11-28T05:32:34.000Z,12.68
2022-11-28T05:37:35.000Z,12.23
2022-11-28T05:42:34.000Z,13
2022-11-28T05:47:34.000Z,14.71
2022-11-28T05:57:34.000Z,17.48
2022-11-28T06:02:35.000Z,13.53
2022-11-28T06:07:35.000Z,11.61
2022-11-28T06:12:34.000Z,11.61
2022-11-28T06:17:35.000Z,11.2
2022-11-28T06:22:35.000Z,10.05
2022-11-28T06:27:34.000Z,10.09
2022-11-28T06:32:34.000Z,10.27
2022-11-28T06:37:34.000Z,11.46
2022-11-28T06:42:35.000Z,10.9
2022-11-28T06:47:34.000Z,11.18
2022-11-28T06:52:35.000Z,11.89
2022-11-28T06:57:35.000Z,11.53
2022-11-28T07:02:35.000Z,12.04
2022-11-28T07:07:34.000Z,11.22
2022-11-28T07:12:34.000Z,11.84
2022-11-28T07:17:35.000Z,12.16
2022-11-28T07:22:35.000Z,12.36
2022-11-28T07:27:34.000Z,12.36
2022-11-28T07:32:35.000Z,12.03
2022-11-28T07:37:35.000Z,12.57
2022-11-28T07:42:34.000Z,12.28
2022-11-28T07:47:35.000Z,12.42
2022-11-28T07:52:34.000Z,11.65
2022-11-28T07:57:35.000Z,12.46
2022-11-28T08:02:35.000Z,12.35
2022-11-28T08:07:34.000Z,11.78
2022-11-28T08:12:35.000Z,12.31
2022-11-28T08:17:35.000Z,11.8
2022-11-28T08:22:35.000Z,12.01
2022-11-28T08:27:34.000Z,11.37
2022-11-28T08:32:35.000Z,11.37
2022-11-28T08:37:35.000Z,10.89
2022-11-28T08:42:35.000Z,11.38
2022-11-28T08:47:35.000Z,10.58
2022-11-28T08:52:35.000Z,10.15
2022-11-28T08:57:34.000Z,12.22
2022-11-28T09:02:36.000Z,11.08
2022-11-28T09:07:35.000Z,10.66
2022-11-28T09:12:35.000Z,9.13
2022-11-28T09:17:34.000Z,9.41
2022-11-28T09:22:35.000Z,9.89
2022-11-28T09:27:35.000Z,9.7
2022-11-28T09:32:35.000Z,8.85
2022-11-28T09:37:34.000Z,8.63
2022-11-28T09:42:35.000Z,9.13
2022-11-28T09:47:35.000Z,9.13
2022-11-28T09:57:35.000Z,8.99
2022-11-28T10:02:35.000Z,11.34
2022-11-28T10:07:34.000Z,11.21
2022-11-28T10:12:35.000Z,9.61
2022-11-28T10:17:34.000Z,10.03
2022-11-28T10:22:35.000Z,10.95
2022-11-28T10:27:37.000Z,9.94
2022-11-28T10:32:34.000Z,11.31
2022-11-28T10:37:34.000Z,12.32
2022-11-28T10:42:35.000Z,10.5
2022-11-28T10:47:34.000Z,10.37
2022-11-28T10:52:35.000Z,10.69
2022-11-28T10:57:35.000Z,11.14
2022-11-28T11:02:34.000Z,11.14
2022-11-28T11:07:39.000Z,9.61
2022-11-28T11:12:35.000Z,10.6
2022-11-28T11:17:34.000Z,9.24
2022-11-28T11:22:35.000Z,9
2022-11-28T11:32:35.000Z,11.05
2022-11-28T11:37:34.000Z,10.46
2022-11-28T11:42:35.000Z,10.58
2022-11-28T11:52:34.000Z,10.11
2022-11-28T11:57:44.000Z,11.28
2022-11-28T12:02:34.000Z,11.98
2022-11-28T12:07:35.000Z,12.84
2022-11-28T12:17:58.000Z,13.16
2022-11-28T12:22:35.000Z,12.9
2022-11-28T12:27:34.000Z,13.54
2022-11-28T12:32:34.000Z,12.68
2022-11-28T12:37:52.000Z,11.41
2022-11-28T12:42:35.000Z,10.85
2022-11-28T12:47:35.000Z,10.48
2022-11-28T12:52:35.000Z,11.43
2022-11-28T12:57:34.000Z,10.57
2022-11-28T13:02:35.000Z,10.57
2022-11-28T13:07:35.000Z,11.67
2022-11-28T13:12:34.000Z,11.95
2022-11-28T13:17:35.000Z,12.55
2022-11-28T13:22:35.000Z,13.33
2022-11-28T13:27:34.000Z,13.28
2022-11-28T13:32:35.000Z,13.68
2022-11-28T13:38:04.000Z,12.18
2022-11-28T13:42:46.000Z,11.96
2022-11-28T13:47:35.000Z,12.05
2022-11-28T13:52:35.000Z,12.6
2022-11-28T13:57:34.000Z,11.14
2022-11-28T14:02:35.000Z,11.94
2022-11-28T14:07:35.000Z,11.94
2022-11-28T14:12:34.000Z,11.65
2022-11-28T14:17:34.000Z,11.27
2022-11-28T14:22:35.000Z,10.6
2022-11-28T14:27:34.000Z,10.58
2022-11-28T14:32:41.000Z,9.91
2022-11-28T14:37:34.000Z,9.23
2022-11-28T14:43:09.000Z,9.43
2022-11-28T14:47:35.000Z,10.26
2022-11-28T14:52:50.000Z,10.32
2022-11-28T14:57:35.000Z,9.27
2022-11-28T15:02:35.000Z,10.34
2022-11-28T15:07:35.000Z,12.6
2022-11-28T15:12:35.000Z,10.76
2022-11-28T15:17:34.000Z,9.56
2022-11-28T15:22:34.000Z,9.56
2022-11-28T15:27:34.000Z,9.65
2022-11-28T15:32:35.000Z,9.79
2022-11-28T15:37:34.000Z,7.91
2022-11-28T15:42:35.000Z,8.68
2022-11-28T15:47:34.000Z,10.71
2022-11-28T15:52:34.000Z,7.72
2022-11-28T15:57:34.000Z,9.63
2022-11-28T16:02:35.000Z,10.13
2022-11-28T16:07:34.000Z,8.2
2022-11-28T16:12:35.000Z,9.83
2022-11-28T16:17:35.000Z,10.36
2022-11-28T16:22:34.000Z,10.47
2022-11-28T16:27:34.000Z,7.51
2022-11-28T16:37:35.000Z,7.8
2022-11-28T16:42:34.000Z,8.16
2022-11-28T16:47:35.000Z,8.63
2022-11-28T16:52:34.000Z,9.18
2022-11-28T16:57:41.000Z,8.08
2022-11-28T17:02:35.000Z,6.37
2022-11-28T17:07:34.000Z,6.37
2022-11-28T17:12:34.000Z,6.32
2022-11-28T17:17:34.000Z,7.09
2022-11-28T17:22:35.000Z,6.63
2022-11-28T17:27:34.000Z,6.28
2022-11-28T17:32:34.000Z,6.74
2022-11-28T17:37:35.000Z,6.67
2022-11-28T17:42:34.000Z,7.27
2022-11-28T17:47:35.000Z,7.85
2022-11-28T17:52:34.000Z,7.58
2022-11-28T17:57:34.000Z,7.95
2022-11-28T18:02:35.000Z,7.42
2022-11-28T18:07:35.000Z,8.19
2022-11-28T18:12:35.000Z,8.62
2022-11-28T18:17:35.000Z,8.57
2022-11-28T18:22:34.000Z,8.57
2022-11-28T18:27:34.000Z,7.66
2022-11-28T18:32:34.000Z,9.35
2022-11-28T18:37:34.000Z,9.55
2022-11-28T18:42:35.000Z,8.23
2022-11-28T18:47:35.000Z,8.36
2022-11-28T18:52:35.000Z,8.36
2022-11-28T18:57:35.000Z,8.34
2022-11-28T19:02:34.000Z,8.28
2022-11-28T19:07:35.000Z,8.54
2022-11-28T19:12:35.000Z,8.96
2022-11-28T19:17:34.000Z,7.85
2022-11-28T19:22:34.000Z,6.97
2022-11-28T19:27:34.000Z,7.2
2022-11-28T19:32:35.000Z,7.09
2022-11-28T19:37:34.000Z,7.09
2022-11-28T19:42:35.000Z,7
2022-11-28T19:47:35.000Z,7.35
2022-11-28T19:52:35.000Z,7.39
2022-11-28T19:57:34.000Z,6.96
2022-11-28T20:02:35.000Z,7.59
2022-11-28T20:07:34.000Z,8.38
2022-11-28T20:12:35.000Z,8.09
2022-11-28T20:17:35.000Z,8.27
2022-11-28T20:22:34.000Z,8.83
2022-11-28T20:27:34.000Z,8.73
2022-11-28T20:32:34.000Z,8.26
2022-11-28T20:37:35.000Z,8.45
2022-11-28T20:42:35.000Z,7.55
2022-11-28T20:47:34.000Z,7.55
2022-11-28T20:52:35.000Z,6.84
2022-11-28T20:57:34.000Z,7.22
2022-11-28T21:02:34.000Z,6.27
2022-11-28T21:07:34.000Z,5.69
2022-11-28T21:12:35.000Z,5.99
2022-11-28T21:17:34.000Z,6.1
2022-11-28T21:22:34.000Z,6.03
2022-11-28T21:27:34.000Z,6.35
2022-11-28T21:32:35.000Z,6.37
2022-11-28T21:37:35.000Z,6.61
2022-11-28T21:47:35.000Z,6.13
2022-11-28T21:52:35.000Z,6.6
2022-11-28T21:57:34.000Z,6.65
2022-11-28T22:02:41.000Z,7.14
2022-11-28T22:07:35.000Z,7.96
2022-11-28T22:17:35.000Z,8.18
2022-11-28T22:22:35.000Z,8.91
2022-11-28T22:27:35.000Z,9.26
2022-11-28T22:32:34.000Z,9.66
2022-11-28T22:37:35.000Z,8.83
2022-11-28T22:42:35.000Z,8.96
2022-11-28T22:47:35.000Z,8.96
2022-11-28T22:52:34.000Z,9.19
2022-11-28T22:57:35.000Z,8.93
2022-11-28T23:02:35.000Z,8.56
2022-11-28T23:07:35.000Z,9.42
2022-11-28T23:22:34.000Z,8.62
2022-11-28T23:27:35.000Z,8.97
2022-11-28T23:32:34.000Z,8.65
2022-11-28T23:37:34.000Z,8.89
2022-11-28T23:42:35.000Z,9.43
2022-11-28T23:47:34.000Z,10.36
2022-11-28T23:52:35.000Z,10.23
2022-11-28T23:57:35.000Z,10.01
